Time;durP1;ratioP1;P1;durP2;ratioP2;P2;SDS_P1;SDS_P2;PMS_P1;PMS_P2;Temp;Humidity;BMP_temperature;BMP_pressure;BME280_temperature;BME280_humidity;BME280_pressure;Samples;Min_cycle;Max_cycle;Signal;HPM_P1;HPM_P2
2021/09/24 00:02:21;;;;;;;3.72;2.17;;;17.10;67.40;;;;;;2274057;55;20969;-68
2021/09/24 00:04:48;;;;;;;3.72;2.20;;;17.00;67.40;;;;;;2276404;55;21006;-69
2021/09/24 00:07:14;;;;;;;5.12;2.42;;;17.00;67.50;;;;;;2279352;55;21504;-70
2021/09/24 00:09:41;;;;;;;3.70;2.17;;;17.00;67.60;;;;;;2321993;55;20986;-69
2021/09/24 00:12:07;;;;;;;3.35;1.95;;;16.90;67.50;;;;;;2507822;55;21345;-70
2021/09/24 00:14:33;;;;;;;3.55;2.30;;;16.90;67.70;;;;;;2278954;55;21711;-68
2021/09/24 00:17:00;;;;;;;3.72;2.40;;;16.90;67.50;;;;;;2337037;55;21122;-70
2021/09/24 00:19:26;;;;;;;4.43;2.47;;;16.80;67.50;;;;;;2418191;55;20978;-68
2021/09/24 00:21:52;;;;;;;4.95;2.55;;;16.70;67.60;;;;;;2277545;55;21506;-68
2021/09/24 00:24:23;;;;;;;4.15;2.40;;;16.70;67.80;;;;;;2281027;55;20936;-69
2021/09/24 00:26:49;;;;;;;4.55;2.45;;;16.70;68.00;;;;;;2253409;56;21736;-68
2021/09/24 00:29:15;;;;;;;3.47;2.17;;;16.60;68.10;;;;;;2281517;55;21034;-70
2021/09/24 00:31:42;;;;;;;3.70;2.25;;;16.60;68.10;;;;;;2273230;55;21440;-70
2021/09/24 00:34:09;;;;;;;3.97;2.45;;;16.60;68.10;;;;;;2259888;56;20986;-70
2021/09/24 00:36:36;;;;;;;4.78;2.97;;;16.60;68.20;;;;;;2396743;55;20949;-67
2021/09/24 00:39:02;;;;;;;4.00;2.53;;;16.50;68.20;;;;;;2282072;55;21071;-69
2021/09/24 00:41:29;;;;;;;4.80;2.70;;;16.50;68.20;;;;;;2266780;56;20946;-69
2021/09/24 00:43:55;;;;;;;5.97;2.60;;;16.50;68.00;;;;;;2281385;55;21574;-69
2021/09/24 00:46:22;;;;;;;4.37;2.70;;;16.50;67.90;;;;;;2283137;55;20966;-69
2021/09/24 00:48:48;;;;;;;3.37;2.12;;;16.40;67.70;;;;;;2278174;55;21026;-70
2021/09/24 00:51:15;;;;;;;3.70;2.45;;;16.40;67.80;;;;;;2270643;55;21117;-70
2021/09/24 00:53:41;;;;;;;4.12;2.33;;;16.30;67.70;;;;;;2299930;55;20954;-69
2021/09/24 00:56:07;;;;;;;3.47;2.20;;;16.30;67.80;;;;;;2282277;56;21002;-68
2021/09/24 00:58:35;;;;;;;3.67;2.15;;;16.30;68.00;;;;;;2268994;55;20917;-67
2021/09/24 01:01:01;;;;;;;3.50;2.05;;;16.20;68.00;;;;;;2264724;55;21535;-68
2021/09/24 01:03:28;;;;;;;4.22;2.55;;;16.20;68.00;;;;;;2268021;55;20946;-70
2021/09/24 01:05:54;;;;;;;4.43;2.53;;;16.10;68.00;;;;;;2279634;55;21834;-69
2021/09/24 01:08:21;;;;;;;3.65;2.40;;;16.10;68.00;;;;;;2279124;55;21486;-70
2021/09/24 01:10:48;;;;;;;4.03;2.42;;;16.00;67.90;;;;;;2507616;55;20966;-69
2021/09/24 01:13:14;;;;;;;4.40;2.70;;;16.00;67.90;;;;;;2281210;55;21054;-70
2021/09/24 01:15:42;;;;;;;4.47;2.40;;;16.00;68.10;;;;;;2274976;55;20946;-67
2021/09/24 01:18:09;;;;;;;3.90;2.22;;;15.90;68.00;;;;;;2280603;55;21386;-66
2021/09/24 01:20:35;;;;;;;4.57;2.30;;;15.90;68.00;;;;;;2284305;56;21006;-69
2021/09/24 01:23:01;;;;;;;4.05;2.58;;;15.90;67.90;;;;;;2277031;55;21626;-70
2021/09/24 01:25:28;;;;;;;3.92;2.45;;;15.80;67.80;;;;;;2273474;56;22034;-69
2021/09/24 01:27:54;;;;;;;3.53;2.10;;;15.80;67.80;;;;;;2282217;55;20990;-69
2021/09/24 01:30:23;;;;;;;4.60;2.25;;;15.80;67.90;;;;;;2281603;56;21002;-70
2021/09/24 01:32:49;;;;;;;5.47;2.42;;;15.70;67.90;;;;;;2293327;55;21283;-71
2021/09/24 01:35:16;;;;;;;4.07;2.42;;;15.70;68.10;;;;;;2278196;55;21530;-67
2021/09/24 01:37:42;;;;;;;4.00;2.40;;;15.60;68.10;;;;;;2278833;55;21484;-69
2021/09/24 01:40:17;;;;;;;3.83;2.42;;;15.60;68.20;;;;;;2279584;55;21014;-69
2021/09/24 01:42:43;;;;;;;4.12;2.40;;;15.60;68.20;;;;;;2281423;56;21046;-69
2021/09/24 01:45:10;;;;;;;3.58;2.28;;;15.60;68.40;;;;;;2277199;55;21003;-68
2021/09/24 01:47:36;;;;;;;3.60;2.25;;;15.50;68.30;;;;;;2281609;55;20945;-70
2021/09/24 01:50:03;;;;;;;4.78;2.42;;;15.50;68.20;;;;;;2512537;55;21092;-68
2021/09/24 01:52:32;;;;;;;4.05;2.33;;;15.50;68.10;;;;;;2281098;55;21893;-68
2021/09/24 01:54:58;;;;;;;3.87;2.28;;;15.50;68.10;;;;;;2287666;55;20950;-69
2021/09/24 01:57:24;;;;;;;4.05;2.47;;;15.40;67.90;;;;;;2513455;55;21799;-68
2021/09/24 01:59:51;;;;;;;4.75;2.72;;;15.40;67.90;;;;;;2274667;55;20946;-67
2021/09/24 02:02:17;;;;;;;3.83;2.47;;;15.40;68.00;;;;;;2283414;55;20997;-68
2021/09/24 02:04:44;;;;;;;3.60;2.20;;;15.30;67.90;;;;;;2263230;56;20977;-70
2021/09/24 02:07:11;;;;;;;3.55;2.05;;;15.30;68.00;;;;;;2274846;55;20954;-71
2021/09/24 02:09:37;;;;;;;7.05;2.80;;;15.20;68.00;;;;;;2280961;55;20962;-70
2021/09/24 02:12:05;;;;;;;3.90;2.12;;;15.20;68.10;;;;;;2283320;55;21106;-70
2021/09/24 02:14:32;;;;;;;4.03;2.50;;;15.20;68.10;;;;;;2255215;56;20923;-70
2021/09/24 02:17:00;;;;;;;4.20;2.30;;;15.20;68.20;;;;;;2280119;55;21471;-68
2021/09/24 02:19:26;;;;;;;3.80;2.40;;;15.10;68.20;;;;;;2284172;56;20952;-69
2021/09/24 02:21:53;;;;;;;4.32;2.58;;;15.10;68.30;;;;;;2267285;55;21396;-68
2021/09/24 02:24:19;;;;;;;3.55;2.08;;;15.10;68.30;;;;;;2281133;56;20986;-68
2021/09/24 02:26:47;;;;;;;4.00;2.20;;;15.00;68.20;;;;;;2284795;55;21043;-68
2021/09/24 02:29:13;;;;;;;3.85;2.28;;;15.10;68.20;;;;;;2275354;55;21049;-68
2021/09/24 02:31:40;;;;;;;4.07;2.20;;;15.00;68.00;;;;;;2280463;55;20961;-67
2021/09/24 02:34:06;;;;;;;4.22;2.35;;;14.90;67.80;;;;;;2278296;55;20979;-70
2021/09/24 02:36:32;;;;;;;3.62;1.95;;;14.90;67.90;;;;;;2279378;55;20938;-71
2021/09/24 02:38:59;;;;;;;5.20;2.30;;;14.90;68.00;;;;;;2514226;55;21534;-69
2021/09/24 02:41:25;;;;;;;3.90;2.42;;;14.90;68.10;;;;;;2277063;55;20954;-68
2021/09/24 02:43:53;;;;;;;4.90;2.55;;;14.80;68.00;;;;;;2281366;56;20986;-68
2021/09/24 02:46:19;;;;;;;3.80;2.35;;;14.80;68.90;;;;;;2282306;55;20962;-71
2021/09/24 02:48:46;;;;;;;4.15;2.35;;;14.80;68.20;;;;;;2289003;55;20982;-67
2021/09/24 02:51:12;;;;;;;4.15;2.50;;;14.80;68.20;;;;;;2271047;55;20956;-70
2021/09/24 02:53:40;;;;;;;4.35;2.78;;;14.70;68.20;;;;;;2282047;56;21097;-70
2021/09/24 02:56:07;;;;;;;4.53;2.75;;;14.70;68.20;;;;;;2281549;56;20969;-66
2021/09/24 02:58:33;;;;;;;3.97;2.50;;;14.70;68.40;;;;;;2280485;55;20962;-70
2021/09/24 03:01:02;;;;;;;6.90;2.12;;;14.60;68.40;;;;;;2256336;55;21037;-66
2021/09/24 03:03:28;;;;;;;3.70;2.30;;;14.60;68.50;;;;;;2388708;55;21067;-68
2021/09/24 03:05:55;;;;;;;4.45;2.40;;;14.60;68.60;;;;;;2268940;55;21001;-68
2021/09/24 03:08:21;;;;;;;6.80;3.00;;;14.60;68.60;;;;;;2253514;56;20955;-68
2021/09/24 03:10:48;;;;;;;3.33;1.95;;;14.60;68.70;;;;;;2280389;55;20945;-70
2021/09/24 03:13:15;;;;;;;3.58;2.03;;;14.60;68.80;;;;;;2282188;55;21032;-69
2021/09/24 03:15:41;;;;;;;4.03;2.28;;;14.60;68.80;;;;;;2266578;55;21494;-69
2021/09/24 03:18:09;;;;;;;3.90;2.28;;;14.50;68.70;;;;;;2274815;55;21058;-68
2021/09/24 03:20:36;;;;;;;4.37;2.50;;;14.50;68.70;;;;;;2281603;55;21025;-67
2021/09/24 03:23:03;;;;;;;4.40;2.53;;;14.50;68.70;;;;;;2276285;55;20994;-70
2021/09/24 03:25:29;;;;;;;4.10;2.75;;;14.60;68.80;;;;;;2283855;56;21010;-69
2021/09/24 03:27:58;;;;;;;4.50;2.45;;;14.50;68.70;;;;;;2276502;55;21107;-70
2021/09/24 03:30:24;;;;;;;3.90;2.30;;;14.50;68.70;;;;;;2268660;55;20965;-69
2021/09/24 03:32:50;;;;;;;3.58;2.20;;;14.50;68.70;;;;;;2272340;55;20938;-69
2021/09/24 03:35:17;;;;;;;4.07;2.45;;;14.50;68.70;;;;;;2380702;55;20998;-69
2021/09/24 03:37:43;;;;;;;4.07;2.42;;;14.40;68.60;;;;;;2281475;56;20957;-68
2021/09/24 03:40:11;;;;;;;4.95;2.80;;;14.40;68.60;;;;;;2281196;55;20966;-71
2021/09/24 03:42:37;;;;;;;4.82;2.55;;;14.40;68.60;;;;;;2281495;55;20958;-68
2021/09/24 03:45:05;;;;;;;4.18;2.67;;;14.40;68.60;;;;;;2281828;55;20981;-68
2021/09/24 03:47:31;;;;;;;4.45;2.83;;;14.30;68.50;;;;;;2279084;55;20962;-69
2021/09/24 03:49:58;;;;;;;3.83;2.47;;;14.30;68.50;;;;;;2262975;55;20961;-68
2021/09/24 03:52:25;;;;;;;4.15;2.70;;;14.30;68.50;;;;;;2280925;55;20994;-68
2021/09/24 03:54:51;;;;;;;3.80;2.53;;;14.30;68.50;;;;;;2280189;55;21025;-68
2021/09/24 03:57:17;;;;;;;4.43;2.40;;;14.20;68.50;;;;;;2281002;56;20969;-68
2021/09/24 03:59:44;;;;;;;4.65;2.83;;;14.20;68.50;;;;;;2281163;55;20957;-69
2021/09/24 04:02:13;;;;;;;5.75;2.72;;;14.20;68.50;;;;;;2279154;55;21026;-70
2021/09/24 04:04:40;;;;;;;3.75;2.30;;;14.10;68.40;;;;;;2275947;55;21859;-67
2021/09/24 04:07:06;;;;;;;3.97;2.47;;;14.10;68.50;;;;;;2278278;55;20985;-70
2021/09/24 04:09:33;;;;;;;4.82;2.83;;;14.10;68.50;;;;;;2280914;55;20950;-69
2021/09/24 04:11:59;;;;;;;4.20;2.53;;;14.10;68.50;;;;;;2393144;55;20981;-70
2021/09/24 04:14:27;;;;;;;3.97;2.00;;;14.10;68.60;;;;;;2283834;55;21017;-70
2021/09/24 04:16:53;;;;;;;4.47;2.40;;;14.10;68.70;;;;;;2269703;56;22039;-69
2021/09/24 04:19:21;;;;;;;4.62;2.70;;;14.10;68.80;;;;;;2280691;56;21280;-69
2021/09/24 04:21:47;;;;;;;4.75;2.75;;;14.10;68.90;;;;;;2281042;55;21022;-70
2021/09/24 04:24:14;;;;;;;4.20;2.65;;;14.00;68.90;;;;;;2280812;56;20974;-69
2021/09/24 04:26:40;;;;;;;4.30;2.65;;;14.00;68.90;;;;;;2281546;56;21077;-68
2021/09/24 04:29:07;;;;;;;4.50;2.80;;;14.00;68.90;;;;;;2278258;55;20966;-70
2021/09/24 04:31:34;;;;;;;4.15;2.37;;;14.00;68.90;;;;;;2280998;55;21758;-71
2021/09/24 04:34:00;;;;;;;4.85;2.97;;;14.00;68.90;;;;;;2282323;56;21082;-69
2021/09/24 04:36:26;;;;;;;4.82;3.00;;;14.00;69.00;;;;;;2281330;55;20946;-68
2021/09/24 04:38:57;;;;;;;4.32;2.75;;;14.00;69.00;;;;;;2283804;55;21010;-68
2021/09/24 04:41:23;;;;;;;4.43;2.58;;;14.00;68.90;;;;;;2264368;55;20983;-71
2021/09/24 04:43:50;;;;;;;4.43;2.75;;;14.00;69.00;;;;;;2274156;55;20997;-69
2021/09/24 04:46:20;;;;;;;4.72;2.90;;;14.00;69.10;;;;;;2370822;55;21013;-68
2021/09/24 04:48:48;;;;;;;4.50;2.42;;;14.00;69.10;;;;;;2281949;56;21826;-68
2021/09/24 04:51:14;;;;;;;4.30;2.67;;;14.00;69.20;;;;;;2381900;55;21674;-70
2021/09/24 04:56:23;;;;;;;5.18;2.92;;;14.00;69.10;;;;;;2328251;53;22865;-69
2021/09/24 04:58:49;;;;;;;5.12;3.20;;;13.90;69.00;;;;;;2331049;53;20922;-69
2021/09/24 05:01:17;;;;;;;4.90;3.25;;;13.90;69.00;;;;;;2268194;54;20947;-69
2021/09/24 05:03:43;;;;;;;5.03;2.95;;;13.90;69.10;;;;;;2297917;54;21493;-69
2021/09/24 05:06:10;;;;;;;4.72;2.83;;;13.90;69.10;;;;;;2327824;53;21037;-68
2021/09/24 05:08:36;;;;;;;4.78;3.12;;;13.90;69.10;;;;;;2339725;53;20905;-70
2021/09/24 05:11:02;;;;;;;4.90;3.08;;;13.90;69.30;;;;;;2342520;53;20913;-69
2021/09/24 05:13:29;;;;;;;4.37;2.83;;;13.90;69.50;;;;;;2347639;53;20965;-70
2021/09/24 05:15:55;;;;;;;4.75;3.00;;;13.90;69.60;;;;;;2536942;52;20930;-68
2021/09/24 05:18:21;;;;;;;4.05;2.37;;;13.90;69.70;;;;;;2356983;53;21035;-71
2021/09/24 05:20:48;;;;;;;5.85;3.50;;;13.90;69.80;;;;;;2479012;52;21090;-68
2021/09/24 05:23:14;;;;;;;5.40;3.15;;;13.90;69.80;;;;;;2599511;52;20921;-69
2021/09/24 05:25:41;;;;;;;5.03;2.95;;;13.90;69.80;;;;;;2342802;53;20949;-71
2021/09/24 05:28:08;;;;;;;5.68;2.95;;;13.90;69.80;;;;;;2342782;53;21012;-72
2021/09/24 05:30:34;;;;;;;4.43;2.85;;;13.90;69.90;;;;;;2542231;52;21916;-69
2021/09/24 05:33:01;;;;;;;4.50;2.65;;;13.90;69.80;;;;;;2342933;53;20905;-69
2021/09/24 05:35:32;;;;;;;4.35;2.80;;;14.00;69.90;;;;;;2422922;52;21514;-71
2021/09/24 05:37:59;;;;;;;3.90;2.47;;;14.00;69.90;;;;;;2357297;53;21014;-69
2021/09/24 05:40:26;;;;;;;4.10;2.50;;;14.00;69.80;;;;;;2345438;53;20941;-68
2021/09/24 05:42:52;;;;;;;5.45;3.03;;;14.00;69.80;;;;;;2551140;52;20999;-68
2021/09/24 05:45:20;;;;;;;4.68;2.90;;;14.00;69.70;;;;;;2412209;52;20964;-68
2021/09/24 05:47:47;;;;;;;5.05;3.03;;;14.00;69.60;;;;;;2340034;53;21001;-69
2021/09/24 05:50:15;;;;;;;4.85;2.90;;;14.00;69.70;;;;;;2604925;52;20960;-70
2021/09/24 05:52:50;;;;;;;5.32;3.40;;;14.00;69.80;;;;;;2349304;54;21008;-68
2021/09/24 05:55:17;;;;;;;4.50;2.90;;;14.00;69.70;;;;;;2348096;53;21449;-71
2021/09/24 05:57:44;;;;;;;4.20;2.80;;;14.00;69.80;;;;;;2347694;53;20948;-71
2021/09/24 06:00:11;;;;;;;5.00;3.30;;;14.00;69.90;;;;;;2355625;53;21001;-71
2021/09/24 06:02:38;;;;;;;5.10;3.20;;;14.00;69.90;;;;;;2361352;53;21019;-68
2021/09/24 06:05:05;;;;;;;6.15;3.62;;;14.00;69.90;;;;;;2341304;53;21386;-69
2021/09/24 06:07:32;;;;;;;5.85;3.92;;;14.00;69.90;;;;;;2353789;53;21424;-70
2021/09/24 06:09:59;;;;;;;6.45;3.87;;;14.00;69.90;;;;;;2354757;53;21109;-71
2021/09/24 06:12:25;;;;;;;6.65;4.15;;;14.00;70.00;;;;;;2353128;53;21005;-70
2021/09/24 06:14:52;;;;;;;7.50;4.57;;;14.00;70.00;;;;;;2587616;52;21701;-70
2021/09/24 06:17:18;;;;;;;6.62;4.28;;;14.00;70.00;;;;;;2342195;53;20932;-71
2021/09/24 06:19:44;;;;;;;6.68;4.62;;;14.00;70.40;;;;;;2464980;52;21425;-68
2021/09/24 06:22:11;;;;;;;6.05;3.78;;;14.00;71.10;;;;;;2344919;54;21015;-71
2021/09/24 06:24:37;;;;;;;5.75;4.05;;;14.10;71.40;;;;;;2505330;52;21370;-70
2021/09/24 06:27:03;;;;;;;5.65;3.62;;;14.20;71.40;;;;;;2341947;53;21235;-71
2021/09/24 06:29:30;;;;;;;6.00;4.12;;;14.20;71.30;;;;;;2588512;52;20977;-70
2021/09/24 06:31:56;;;;;;;4.65;3.10;;;14.30;71.30;;;;;;2374802;52;20948;-68
2021/09/24 06:34:23;;;;;;;4.65;3.20;;;14.30;71.30;;;;;;2336283;54;21037;-70
2021/09/24 06:36:49;;;;;;;7.05;3.33;;;14.40;71.30;;;;;;2425816;52;21550;-70
2021/09/24 06:39:18;;;;;;;4.80;3.35;;;14.40;71.40;;;;;;2347341;53;21077;-71
2021/09/24 06:41:44;;;;;;;6.12;3.55;;;14.50;71.50;;;;;;2338593;53;21461;-71
2021/09/24 06:44:11;;;;;;;5.70;3.67;;;14.50;71.50;;;;;;2431053;52;21552;-67
2021/09/24 06:46:39;;;;;;;5.47;3.65;;;14.50;71.60;;;;;;2348066;53;21047;-68
2021/09/24 06:49:05;;;;;;;4.53;3.25;;;14.60;71.80;;;;;;2378301;53;21686;-71
2021/09/24 06:51:32;;;;;;;5.40;3.65;;;14.60;71.90;;;;;;2350482;54;20981;-68
2021/09/24 06:53:59;;;;;;;6.00;3.92;;;14.70;72.10;;;;;;2344197;53;20972;-69
2021/09/24 06:56:25;;;;;;;5.25;3.67;;;14.80;72.30;;;;;;2358556;53;21532;-71
2021/09/24 06:58:54;;;;;;;7.03;4.15;;;14.80;72.50;;;;;;2351869;54;20941;-69
2021/09/24 07:01:21;;;;;;;4.93;3.30;;;14.90;72.80;;;;;;2346320;53;21058;-70
2021/09/24 07:03:47;;;;;;;5.00;3.33;;;15.00;73.00;;;;;;2342937;54;21012;-69
2021/09/24 07:06:17;;;;;;;5.32;3.65;;;15.10;73.30;;;;;;2348868;53;20941;-68
2021/09/24 07:08:43;;;;;;;5.68;3.75;;;15.10;74.20;;;;;;2342285;53;20933;-69
2021/09/24 07:11:10;;;;;;;6.43;4.47;;;15.30;73.90;;;;;;2328783;54;21003;-72
2021/09/24 07:13:36;;;;;;;6.20;4.28;;;15.30;74.00;;;;;;2404595;53;21737;-70
2021/09/24 07:16:04;;;;;;;6.80;4.22;;;15.40;74.20;;;;;;2360900;53;20901;-71
2021/09/24 07:18:30;;;;;;;11.45;4.68;;;15.50;74.30;;;;;;2425349;52;21024;-72
2021/09/24 07:20:58;;;;;;;5.65;3.80;;;15.60;74.50;;;;;;2349014;53;20933;-71
2021/09/24 07:23:24;;;;;;;5.93;3.90;;;15.80;74.70;;;;;;2439293;53;21023;-73
2021/09/24 07:25:51;;;;;;;4.90;3.50;;;15.90;74.80;;;;;;2337657;53;20901;-70
2021/09/24 07:28:18;;;;;;;6.03;4.30;;;16.00;74.90;;;;;;2358320;54;22017;-72
2021/09/24 07:30:44;;;;;;;6.68;4.80;;;16.10;75.00;;;;;;2346900;54;20964;-71
2021/09/24 07:33:11;;;;;;;7.87;4.72;;;16.20;75.00;;;;;;2361470;52;20962;-71
2021/09/24 07:35:37;;;;;;;8.00;5.28;;;16.30;75.10;;;;;;2411574;52;20944;-72
2021/09/24 07:38:04;;;;;;;6.75;4.87;;;16.40;75.10;;;;;;2350049;53;20972;-71
2021/09/24 07:40:30;;;;;;;7.40;5.32;;;16.60;75.30;;;;;;2337214;53;20964;-72
2021/09/24 07:42:56;;;;;;;6.75;4.97;;;16.70;75.20;;;;;;2353003;53;20984;-69
2021/09/24 07:45:22;;;;;;;6.85;4.85;;;16.80;75.20;;;;;;2339976;53;21339;-70
2021/09/24 07:47:49;;;;;;;7.00;4.28;;;16.90;75.30;;;;;;2588333;53;20996;-70
2021/09/24 07:50:15;;;;;;;5.22;3.83;;;17.00;75.30;;;;;;2348297;53;21004;-71
2021/09/24 07:52:44;;;;;;;7.32;3.92;;;17.10;75.30;;;;;;2390549;53;20969;-70
2021/09/24 07:55:11;;;;;;;7.00;4.65;;;17.30;75.20;;;;;;2314819;53;20963;-73
2021/09/24 07:57:38;;;;;;;6.07;4.12;;;17.40;75.30;;;;;;2377536;53;21011;-72
2021/09/24 08:00:05;;;;;;;5.75;3.78;;;17.50;75.40;;;;;;2323516;53;21495;-72
2021/09/24 08:02:35;;;;;;;6.43;4.45;;;17.60;75.40;;;;;;2347618;53;20951;-69
2021/09/24 08:05:03;;;;;;;6.65;4.45;;;17.70;75.40;;;;;;2314774;53;21011;-70
2021/09/24 08:07:30;;;;;;;6.87;4.37;;;17.80;75.60;;;;;;2316213;53;20979;-71
2021/09/24 08:09:56;;;;;;;9.18;4.95;;;17.90;75.50;;;;;;2333778;53;21005;-70
2021/09/24 08:12:23;;;;;;;6.03;3.97;;;18.00;75.40;;;;;;2506046;53;21042;-69
2021/09/24 08:14:51;;;;;;;6.95;4.25;;;18.10;75.40;;;;;;2313222;54;20965;-68
2021/09/24 08:17:18;;;;;;;5.97;4.00;;;18.30;75.50;;;;;;2359813;53;21053;-71
2021/09/24 08:19:44;;;;;;;5.62;3.72;;;18.40;75.60;;;;;;2323038;54;20927;-71
2021/09/24 08:22:10;;;;;;;5.25;3.67;;;18.50;75.60;;;;;;2307857;54;20930;-71
2021/09/24 08:24:36;;;;;;;6.95;4.55;;;18.60;75.60;;;;;;2314911;54;20906;-69
2021/09/24 08:27:03;;;;;;;5.62;4.15;;;18.70;75.60;;;;;;2314380;54;21002;-70
2021/09/24 08:29:29;;;;;;;6.12;4.45;;;18.90;75.80;;;;;;2450696;53;21545;-70
2021/09/24 08:31:58;;;;;;;5.80;3.95;;;19.00;75.80;;;;;;2314219;55;20942;-70
2021/09/24 08:34:26;;;;;;;7.05;4.90;;;19.10;75.70;;;;;;2317956;55;20957;-72
2021/09/24 08:36:52;;;;;;;6.53;4.43;;;19.20;75.60;;;;;;2309237;55;20997;-69
2021/09/24 08:39:18;;;;;;;6.15;4.45;;;19.40;75.70;;;;;;2404773;53;21914;-71
2021/09/24 08:41:44;;;;;;;4.78;3.70;;;19.50;75.80;;;;;;2337024;53;20934;-71
2021/09/24 08:44:11;;;;;;;6.62;4.87;;;19.60;75.80;;;;;;2316739;53;21014;-72
2021/09/24 08:46:38;;;;;;;6.55;5.32;;;19.70;75.70;;;;;;2390019;53;20972;-72
2021/09/24 08:49:05;;;;;;;8.45;5.10;;;19.90;75.60;;;;;;2444222;53;21642;-73
2021/09/24 08:51:31;;;;;;;6.60;4.72;;;20.00;75.60;;;;;;2330099;53;20934;-71
2021/09/24 08:53:58;;;;;;;6.82;5.22;;;20.10;75.50;;;;;;2318323;53;21452;-70
2021/09/24 08:56:24;;;;;;;8.68;5.55;;;20.20;75.40;;;;;;2306255;53;21072;-71
2021/09/24 08:58:50;;;;;;;8.25;4.25;;;20.30;75.20;;;;;;2331765;54;21487;-71
2021/09/24 09:01:17;;;;;;;6.70;5.20;;;20.50;75.40;;;;;;2321839;53;20980;-72
2021/09/24 09:03:48;;;;;;;6.62;4.90;;;20.60;75.30;;;;;;2330198;53;21466;-69
2021/09/24 09:06:17;;;;;;;6.47;4.97;;;20.70;75.10;;;;;;2315690;54;21316;-69
2021/09/24 09:08:43;;;;;;;6.57;4.85;;;20.80;75.00;;;;;;2313890;54;21738;-71
2021/09/24 09:11:20;;;;;;;6.15;4.65;;;20.90;74.90;;;;;;2532643;53;21489;-69
2021/09/24 09:13:56;;;;;;;5.07;4.03;;;21.10;74.40;;;;;;2317216;54;21014;-71
2021/09/24 09:16:34;;;;;;;7.37;4.87;;;21.20;74.40;;;;;;2316295;55;21406;-71
2021/09/24 09:19:09;;;;;;;7.05;5.10;;;21.30;73.80;;;;;;2444664;54;20963;-71
2021/09/24 09:21:38;;;;;;;7.62;4.53;;;21.40;73.80;;;;;;2555034;53;21438;-70
2021/09/24 09:24:17;;;;;;;7.40;4.85;;;21.50;74.40;;;;;;2316500;54;20919;-72
2021/09/24 09:26:45;;;;;;;7.45;5.28;;;21.60;73.60;;;;;;2553023;53;20921;-72
2021/09/24 09:29:11;;;;;;;7.82;5.68;;;21.70;74.10;;;;;;2320281;54;20965;-70
2021/09/24 09:32:00;;;;;;;6.80;5.10;;;21.80;73.90;;;;;;2312706;54;21086;-70
2021/09/24 09:34:34;;;;;;;6.15;4.65;;;21.90;73.20;;;;;;2311553;54;20934;-72
2021/09/24 09:37:13;;;;;;;6.30;4.80;;;22.00;73.40;;;;;;2299885;54;21023;-70
2021/09/24 09:39:39;;;;;;;7.78;5.62;;;22.20;73.10;;;;;;2325767;54;20988;-69
2021/09/24 09:42:06;;;;;;;8.15;6.05;;;22.30;74.10;;;;;;2317101;54;20979;-73
2021/09/24 09:44:33;;;;;;;6.80;4.95;;;22.40;74.00;;;;;;2389347;53;20950;-70
2021/09/24 09:47:00;;;;;;;5.90;4.70;;;22.50;73.90;;;;;;2309510;54;20926;-69
2021/09/24 09:49:28;;;;;;;5.65;3.83;;;22.50;73.70;;;;;;2313884;54;20979;-70
2021/09/24 09:52:12;;;;;;;5.87;4.10;;;22.60;73.40;;;;;;2315682;54;20937;-72
2021/09/24 09:54:38;;;;;;;6.45;4.70;;;22.80;71.70;;;;;;2311930;56;21011;-69
2021/09/24 09:57:19;;;;;;;5.47;3.90;;;22.80;72.80;;;;;;2308439;54;20934;-73
2021/09/24 09:59:52;;;;;;;6.90;4.22;;;22.90;71.30;;;;;;2318287;55;21798;-71
2021/09/24 10:02:31;;;;;;;5.57;3.90;;;23.00;71.30;;;;;;2308835;54;20991;-69
2021/09/24 10:05:01;;;;;;;5.35;3.90;;;23.10;71.20;;;;;;2314022;54;21011;-69
2021/09/24 10:07:29;;;;;;;5.30;3.50;;;23.20;72.10;;;;;;2318516;54;21027;-69
2021/09/24 10:10:08;;;;;;;5.45;4.40;;;23.20;72.10;;;;;;2323307;54;21033;-69
2021/09/24 10:12:34;;;;;;;7.87;4.47;;;23.30;70.90;;;;;;2315061;55;21794;-67
2021/09/24 10:15:01;;;;;;;5.47;4.32;;;23.40;71.30;;;;;;2314072;55;20938;-69
2021/09/24 10:17:27;;;;;;;5.18;3.95;;;23.40;71.10;;;;;;2311616;54;20935;-69
2021/09/24 10:19:54;;;;;;;6.37;3.70;;;23.50;71.10;;;;;;2313371;54;21709;-70
2021/09/24 10:22:21;;;;;;;4.90;3.33;;;23.50;71.40;;;;;;2311809;54;20960;-68
2021/09/24 10:24:47;;;;;;;6.25;3.65;;;23.60;70.60;;;;;;2312569;54;20994;-68
2021/09/24 10:27:28;;;;;;;5.15;3.62;;;23.70;70.70;;;;;;2312037;54;21000;-70
2021/09/24 10:29:57;;;;;;;5.30;4.10;;;23.70;69.90;;;;;;2330314;54;20984;-67
2021/09/24 10:32:25;;;;;;;5.10;3.78;;;23.80;70.20;;;;;;2314111;55;21289;-70
2021/09/24 10:34:57;;;;;;;4.90;3.70;;;23.90;70.00;;;;;;2353525;54;22082;-73
2021/09/24 10:37:24;;;;;;;8.48;4.10;;;23.90;69.80;;;;;;2313297;54;20959;-73
2021/09/24 10:39:58;;;;;;;6.68;4.40;;;23.90;69.20;;;;;;2545916;53;20930;-68
2021/09/24 10:42:40;;;;;;;4.95;3.60;;;24.00;69.10;;;;;;2311899;54;20939;-68
2021/09/24 10:47:09;;;;;;;4.95;3.75;;;24.10;67.50;;;;;;2313730;54;21483;-67
2021/09/24 10:49:36;;;;;;;3.87;2.65;;;24.10;67.70;;;;;;2316703;55;20950;-71
2021/09/24 10:52:10;;;;;;;6.47;3.45;;;24.20;69.20;;;;;;2311763;54;21051;-68
2021/09/24 10:57:13;;;;;;;4.50;3.12;;;24.20;68.80;;;;;;2324849;54;20985;-71
2021/09/24 10:59:40;;;;;;;4.37;3.05;;;24.30;67.40;;;;;;2317908;54;21901;-73
2021/09/24 11:02:39;;;;;;;4.50;2.97;;;24.40;68.70;;;;;;2315125;54;20954;-70
2021/09/24 11:05:08;;;;;;;5.43;3.35;;;24.40;67.30;;;;;;2314502;54;20994;-69
2021/09/24 11:07:34;;;;;;;3.83;2.62;;;24.50;68.50;;;;;;2550166;53;20983;-70
2021/09/24 11:10:01;;;;;;;4.53;3.00;;;24.50;68.70;;;;;;2312491;54;22212;-72
2021/09/24 11:12:27;;;;;;;4.57;3.25;;;24.50;68.50;;;;;;2543102;53;20975;-68
2021/09/24 11:15:10;;;;;;;4.20;2.78;;;24.60;68.50;;;;;;2310869;54;20948;-71
2021/09/24 11:17:46;;;;;;;6.82;3.30;;;24.60;66.80;;;;;;2319719;54;21093;-69
2021/09/24 11:20:35;;;;;;;6.43;2.95;;;24.70;66.80;;;;;;2314578;55;22506;-68
2021/09/24 11:23:31;;;;;;;4.40;2.78;;;24.80;66.50;;;;;;2316123;54;20983;-70
2021/09/24 11:26:13;;;;;;;3.87;2.65;;;24.90;65.90;;;;;;2312655;54;20986;-71
2021/09/24 11:28:40;;;;;;;3.70;2.30;;;24.90;66.40;;;;;;2460045;53;20983;-71
2021/09/24 11:31:07;;;;;;;3.97;2.60;;;25.00;67.80;;;;;;2313390;54;20930;-70
2021/09/24 11:33:44;;;;;;;3.97;2.67;;;25.00;67.30;;;;;;2307007;54;21505;-74
2021/09/24 11:36:10;;;;;;;4.65;3.12;;;25.10;66.30;;;;;;2314544;54;21005;-72
2021/09/24 11:38:36;;;;;;;4.15;3.17;;;25.20;66.50;;;;;;2315065;55;21009;-72
2021/09/24 11:41:03;;;;;;;4.75;3.28;;;25.20;65.70;;;;;;2314426;55;20946;-73
2021/09/24 11:43:47;;;;;;;4.07;2.83;;;25.20;65.20;;;;;;2313898;54;20950;-70
2021/09/24 11:46:19;;;;;;;3.65;2.50;;;25.30;63.50;;;;;;2435475;53;20931;-74
2021/09/24 11:48:45;;;;;;;4.18;2.90;;;25.30;65.20;;;;;;2314643;55;20990;-73
2021/09/24 11:51:21;;;;;;;3.80;2.70;;;25.40;65.90;;;;;;2311364;54;21003;-71
2021/09/24 11:53:52;;;;;;;3.87;2.60;;;25.50;64.80;;;;;;2322645;54;20944;-70
2021/09/24 11:56:33;;;;;;;3.58;2.70;;;25.50;64.90;;;;;;2313880;54;21104;-69
2021/09/24 11:59:04;;;;;;;3.92;2.55;;;25.60;63.30;;;;;;2322401;54;21362;-75
2021/09/24 12:01:30;;;;;;;3.80;2.45;;;25.60;64.70;;;;;;2323425;54;20967;-73
2021/09/24 12:03:57;;;;;;;4.03;2.53;;;25.70;64.70;;;;;;2309484;54;21046;-71
2021/09/24 12:06:23;;;;;;;4.78;3.03;;;25.70;63.40;;;;;;2329305;54;20959;-69
2021/09/24 12:08:58;;;;;;;3.30;2.10;;;25.70;63.50;;;;;;2315118;54;21041;-69
2021/09/24 12:11:30;;;;;;;3.42;2.37;;;25.70;63.90;;;;;;2318535;53;21019;-70
2021/09/24 12:14:00;;;;;;;3.90;2.40;;;25.70;63.30;;;;;;2564165;53;21090;-70
2021/09/24 12:16:37;;;;;;;3.65;2.37;;;25.80;64.00;;;;;;2318714;55;21078;-74
2021/09/24 12:19:22;;;;;;;2.92;2.00;;;25.80;63.80;;;;;;2334056;54;21030;-72
2021/09/24 12:21:59;;;;;;;2.92;1.90;;;25.90;63.40;;;;;;2580644;53;20947;-73
2021/09/24 12:24:36;;;;;;;3.40;2.42;;;26.00;62.60;;;;;;2342784;55;20982;-70
2021/09/24 12:27:07;;;;;;;3.47;2.20;;;26.00;63.10;;;;;;2310151;55;20935;-73
2021/09/24 12:29:33;;;;;;;3.20;2.17;;;26.00;63.20;;;;;;2316796;54;21020;-72
2021/09/24 12:32:07;;;;;;;5.47;2.40;;;26.10;63.70;;;;;;2344414;54;20987;-76
2021/09/24 12:35:05;;;;;;;3.50;2.50;;;26.20;62.80;;;;;;2541948;53;20979;-74
2021/09/24 12:37:42;;;;;;;3.53;2.42;;;26.30;61.30;;;;;;2342946;54;20931;-73
2021/09/24 12:40:19;;;;;;;4.22;2.33;;;26.30;60.70;;;;;;2322981;54;20959;-70
2021/09/24 12:42:47;;;;;;;3.47;2.17;;;26.40;60.70;;;;;;2334953;54;20990;-68
2021/09/24 12:45:26;;;;;;;3.65;2.25;;;26.50;62.60;;;;;;2318135;54;20991;-70
2021/09/24 12:47:53;;;;;;;4.28;2.28;;;26.50;61.70;;;;;;2584752;53;20986;-73
2021/09/24 12:50:19;;;;;;;3.67;1.90;;;26.50;62.50;;;;;;2328200;54;20979;-70
2021/09/24 12:52:46;;;;;;;3.03;2.08;;;26.60;62.50;;;;;;2342618;54;21011;-71
2021/09/24 12:55:13;;;;;;;4.20;2.20;;;26.60;62.40;;;;;;2321398;54;20935;-67
2021/09/24 12:57:42;;;;;;;4.50;2.90;;;26.60;62.30;;;;;;2344193;55;20940;-70
2021/09/24 13:00:12;;;;;;;4.95;2.87;;;26.70;60.70;;;;;;2324117;55;20932;-69
2021/09/24 13:02:39;;;;;;;3.35;2.20;;;26.70;59.10;;;;;;2328294;54;21074;-73